sensor_id;sensor_type;location;lat;lon;timestamp;temperature;humidity
21891;DHT22;11110;52.386;16.940;2022-07-22T00:00:06;36.00;40.70
21891;DHT22;11110;52.386;16.940;2022-07-22T00:02:55;36.10;40.80
21891;DHT22;11110;52.386;16.940;2022-07-22T00:05:23;36.00;40.90
21891;DHT22;11110;52.386;16.940;2022-07-22T00:07:52;36.10;40.80
21891;DHT22;11110;52.386;16.940;2022-07-22T00:10:20;36.00;40.90
21891;DHT22;11110;52.386;16.940;2022-07-22T00:12:48;35.90;41.00
21891;DHT22;11110;52.386;16.940;2022-07-22T00:15:18;35.90;41.20
21891;DHT22;11110;52.386;16.940;2022-07-22T00:17:46;35.90;41.20
21891;DHT22;11110;52.386;16.940;2022-07-22T00:20:14;35.90;41.60
21891;DHT22;11110;52.386;16.940;2022-07-22T00:22:43;35.70;41.40
21891;DHT22;11110;52.386;16.940;2022-07-22T00:25:11;35.70;41.70
21891;DHT22;11110;52.386;16.940;2022-07-22T00:27:40;35.80;42.00
21891;DHT22;11110;52.386;16.940;2022-07-22T00:30:09;35.70;42.00
21891;DHT22;11110;52.386;16.940;2022-07-22T00:32:39;35.70;42.00
21891;DHT22;11110;52.386;16.940;2022-07-22T00:35:08;35.70;42.00
21891;DHT22;11110;52.386;16.940;2022-07-22T00:37:36;35.70;42.00
21891;DHT22;11110;52.386;16.940;2022-07-22T00:40:05;35.70;42.10
21891;DHT22;11110;52.386;16.940;2022-07-22T00:42:34;35.70;42.80
21891;DHT22;11110;52.386;16.940;2022-07-22T00:45:03;35.80;42.20
21891;DHT22;11110;52.386;16.940;2022-07-22T00:47:32;35.70;41.80
21891;DHT22;11110;52.386;16.940;2022-07-22T00:50:02;35.70;41.70
21891;DHT22;11110;52.386;16.940;2022-07-22T00:52:31;35.80;41.90
21891;DHT22;11110;52.386;16.940;2022-07-22T00:55:00;35.80;42.00
21891;DHT22;11110;52.386;16.940;2022-07-22T00:57:29;35.80;41.90
21891;DHT22;11110;52.386;16.940;2022-07-22T00:59:58;35.80;42.50
21891;DHT22;11110;52.386;16.940;2022-07-22T01:02:26;35.80;42.00
21891;DHT22;11110;52.386;16.940;2022-07-22T01:04:55;35.90;42.80
21891;DHT22;11110;52.386;16.940;2022-07-22T01:07:25;35.80;41.90
21891;DHT22;11110;52.386;16.940;2022-07-22T01:09:54;35.80;42.20
21891;DHT22;11110;52.386;16.940;2022-07-22T01:12:22;35.70;42.30
21891;DHT22;11110;52.386;16.940;2022-07-22T01:14:51;35.60;42.40
21891;DHT22;11110;52.386;16.940;2022-07-22T01:17:19;35.60;42.60
21891;DHT22;11110;52.386;16.940;2022-07-22T01:19:48;35.70;42.70
21891;DHT22;11110;52.386;16.940;2022-07-22T01:22:18;35.60;42.90
21891;DHT22;11110;52.386;16.940;2022-07-22T01:24:46;35.50;43.00
21891;DHT22;11110;52.386;16.940;2022-07-22T01:27:15;35.50;43.30
21891;DHT22;11110;52.386;16.940;2022-07-22T01:29:43;35.50;43.40
21891;DHT22;11110;52.386;16.940;2022-07-22T01:32:11;35.50;43.50
21891;DHT22;11110;52.386;16.940;2022-07-22T01:34:40;35.40;43.70
21891;DHT22;11110;52.386;16.940;2022-07-22T01:37:10;35.30;43.50
21891;DHT22;11110;52.386;16.940;2022-07-22T01:39:40;35.30;43.80
21891;DHT22;11110;52.386;16.940;2022-07-22T01:42:09;35.30;44.00
21891;DHT22;11110;52.386;16.940;2022-07-22T01:44:38;35.30;44.00
21891;DHT22;11110;52.386;16.940;2022-07-22T01:47:07;35.20;43.90
21891;DHT22;11110;52.386;16.940;2022-07-22T01:49:36;35.30;43.90
21891;DHT22;11110;52.386;16.940;2022-07-22T01:52:05;35.30;43.90
21891;DHT22;11110;52.386;16.940;2022-07-22T01:54:34;35.20;43.90
21891;DHT22;11110;52.386;16.940;2022-07-22T01:57:05;35.20;44.20
21891;DHT22;11110;52.386;16.940;2022-07-22T01:59:41;35.20;44.20
21891;DHT22;11110;52.386;16.940;2022-07-22T02:02:10;35.10;44.10
21891;DHT22;11110;52.386;16.940;2022-07-22T02:04:38;35.20;44.00
21891;DHT22;11110;52.386;16.940;2022-07-22T02:07:08;35.10;44.30
21891;DHT22;11110;52.386;16.940;2022-07-22T02:09:37;35.10;44.20
21891;DHT22;11110;52.386;16.940;2022-07-22T02:12:07;35.10;44.50
21891;DHT22;11110;52.386;16.940;2022-07-22T02:14:42;35.10;44.40
21891;DHT22;11110;52.386;16.940;2022-07-22T02:17:11;35.10;44.40
21891;DHT22;11110;52.386;16.940;2022-07-22T02:19:40;35.10;44.60
21891;DHT22;11110;52.386;16.940;2022-07-22T02:22:11;35.10;44.80
21891;DHT22;11110;52.386;16.940;2022-07-22T02:24:39;35.10;44.70
21891;DHT22;11110;52.386;16.940;2022-07-22T02:27:09;35.10;44.90
21891;DHT22;11110;52.386;16.940;2022-07-22T02:29:38;35.10;44.70
21891;DHT22;11110;52.386;16.940;2022-07-22T02:32:07;35.10;44.90
21891;DHT22;11110;52.386;16.940;2022-07-22T02:34:37;35.10;44.50
21891;DHT22;11110;52.386;16.940;2022-07-22T02:37:06;35.20;44.80
21891;DHT22;11110;52.386;16.940;2022-07-22T02:39:34;35.20;44.80
21891;DHT22;11110;52.386;16.940;2022-07-22T02:42:03;35.20;44.80
21891;DHT22;11110;52.386;16.940;2022-07-22T02:44:33;35.20;44.40
21891;DHT22;11110;52.386;16.940;2022-07-22T02:47:02;35.30;44.70
21891;DHT22;11110;52.386;16.940;2022-07-22T02:49:34;35.30;44.60
21891;DHT22;11110;52.386;16.940;2022-07-22T02:52:03;35.30;44.60
21891;DHT22;11110;52.386;16.940;2022-07-22T02:54:31;35.30;44.80
21891;DHT22;11110;52.386;16.940;2022-07-22T02:57:00;35.40;44.90
21891;DHT22;11110;52.386;16.940;2022-07-22T02:59:28;35.30;44.80
21891;DHT22;11110;52.386;16.940;2022-07-22T03:01:58;35.20;44.80
21891;DHT22;11110;52.386;16.940;2022-07-22T03:04:27;35.20;45.10
21891;DHT22;11110;52.386;16.940;2022-07-22T03:06:55;35.20;45.30
21891;DHT22;11110;52.386;16.940;2022-07-22T03:09:24;35.20;45.30
21891;DHT22;11110;52.386;16.940;2022-07-22T03:12:07;35.10;45.50
21891;DHT22;11110;52.386;16.940;2022-07-22T03:14:35;35.10;45.60
21891;DHT22;11110;52.386;16.940;2022-07-22T03:17:05;35.00;46.10
21891;DHT22;11110;52.386;16.940;2022-07-22T03:19:33;34.90;46.00
21891;DHT22;11110;52.386;16.940;2022-07-22T03:22:02;34.90;46.80
21891;DHT22;11110;52.386;16.940;2022-07-22T03:24:30;35.00;47.90
21891;DHT22;11110;52.386;16.940;2022-07-22T03:27:00;34.90;48.20
21891;DHT22;11110;52.386;16.940;2022-07-22T03:29:30;34.90;48.30
21891;DHT22;11110;52.386;16.940;2022-07-22T03:31:59;34.90;48.50
21891;DHT22;11110;52.386;16.940;2022-07-22T03:34:40;34.90;48.70
21891;DHT22;11110;52.386;16.940;2022-07-22T03:37:09;34.90;48.80
21891;DHT22;11110;52.386;16.940;2022-07-22T03:39:38;34.90;48.40
21891;DHT22;11110;52.386;16.940;2022-07-22T03:42:06;34.80;48.50
21891;DHT22;11110;52.386;16.940;2022-07-22T03:44:43;34.80;48.70
21891;DHT22;11110;52.386;16.940;2022-07-22T03:47:17;34.80;49.10
21891;DHT22;11110;52.386;16.940;2022-07-22T03:49:48;34.90;49.20
21891;DHT22;11110;52.386;16.940;2022-07-22T03:52:23;34.80;49.20
21891;DHT22;11110;52.386;16.940;2022-07-22T03:54:52;34.80;49.10
21891;DHT22;11110;52.386;16.940;2022-07-22T03:57:21;34.80;48.20
21891;DHT22;11110;52.386;16.940;2022-07-22T03:59:59;34.80;48.10
21891;DHT22;11110;52.386;16.940;2022-07-22T04:02:28;34.80;47.60
21891;DHT22;11110;52.386;16.940;2022-07-22T04:04:58;34.80;47.80
21891;DHT22;11110;52.386;16.940;2022-07-22T04:07:27;34.80;48.00
21891;DHT22;11110;52.386;16.940;2022-07-22T04:09:55;34.80;48.00
21891;DHT22;11110;52.386;16.940;2022-07-22T04:12:36;34.80;48.40
21891;DHT22;11110;52.386;16.940;2022-07-22T04:15:20;34.80;48.30
21891;DHT22;11110;52.386;16.940;2022-07-22T04:17:51;34.80;48.40
21891;DHT22;11110;52.386;16.940;2022-07-22T04:20:21;34.80;48.50
21891;DHT22;11110;52.386;16.940;2022-07-22T04:23:10;34.80;48.80
21891;DHT22;11110;52.386;16.940;2022-07-22T04:25:38;34.80;49.00
21891;DHT22;11110;52.386;16.940;2022-07-22T04:28:07;34.90;48.90
21891;DHT22;11110;52.386;16.940;2022-07-22T04:30:36;34.90;49.30
21891;DHT22;11110;52.386;16.940;2022-07-22T04:33:05;34.80;48.60
21891;DHT22;11110;52.386;16.940;2022-07-22T04:35:35;34.90;48.80
21891;DHT22;11110;52.386;16.940;2022-07-22T04:38:09;34.90;48.80
21891;DHT22;11110;52.386;16.940;2022-07-22T04:40:41;34.90;48.70
21891;DHT22;11110;52.386;16.940;2022-07-22T04:43:09;35.00;48.60
21891;DHT22;11110;52.386;16.940;2022-07-22T04:45:38;35.00;48.60
21891;DHT22;11110;52.386;16.940;2022-07-22T04:48:07;35.00;48.80
21891;DHT22;11110;52.386;16.940;2022-07-22T04:50:37;35.00;48.80
21891;DHT22;11110;52.386;16.940;2022-07-22T04:53:05;35.10;49.00
21891;DHT22;11110;52.386;16.940;2022-07-22T04:55:36;35.00;48.80
21891;DHT22;11110;52.386;16.940;2022-07-22T04:58:04;35.00;49.00
21891;DHT22;11110;52.386;16.940;2022-07-22T05:00:33;35.00;49.00
21891;DHT22;11110;52.386;16.940;2022-07-22T05:03:01;35.00;49.30
21891;DHT22;11110;52.386;16.940;2022-07-22T05:05:30;34.90;49.20
21891;DHT22;11110;52.386;16.940;2022-07-22T05:08:00;34.90;49.10
21891;DHT22;11110;52.386;16.940;2022-07-22T05:10:29;34.90;48.90
21891;DHT22;11110;52.386;16.940;2022-07-22T05:12:57;34.90;49.00
21891;DHT22;11110;52.386;16.940;2022-07-22T05:15:26;34.90;49.00
21891;DHT22;11110;52.386;16.940;2022-07-22T05:17:55;34.90;49.00
21891;DHT22;11110;52.386;16.940;2022-07-22T05:20:27;34.80;48.80
21891;DHT22;11110;52.386;16.940;2022-07-22T05:22:55;34.80;49.00
21891;DHT22;11110;52.386;16.940;2022-07-22T05:25:28;34.80;49.00
21891;DHT22;11110;52.386;16.940;2022-07-22T05:27:57;34.80;48.90
21891;DHT22;11110;52.386;16.940;2022-07-22T05:30:30;34.80;48.90
21891;DHT22;11110;52.386;16.940;2022-07-22T05:32:59;34.80;48.80
21891;DHT22;11110;52.386;16.940;2022-07-22T05:35:45;34.80;48.80
21891;DHT22;11110;52.386;16.940;2022-07-22T05:38:14;34.80;48.80
21891;DHT22;11110;52.386;16.940;2022-07-22T05:40:44;34.80;49.10
21891;DHT22;11110;52.386;16.940;2022-07-22T05:43:13;34.80;49.20
21891;DHT22;11110;52.386;16.940;2022-07-22T05:45:41;34.80;49.20
21891;DHT22;11110;52.386;16.940;2022-07-22T05:48:10;34.80;48.80
21891;DHT22;11110;52.386;16.940;2022-07-22T05:50:38;34.90;49.00
21891;DHT22;11110;52.386;16.940;2022-07-22T05:53:07;34.90;49.00
21891;DHT22;11110;52.386;16.940;2022-07-22T05:55:36;34.90;48.70
21891;DHT22;11110;52.386;16.940;2022-07-22T05:58:06;34.90;48.90
21891;DHT22;11110;52.386;16.940;2022-07-22T06:00:34;34.90;48.40
21891;DHT22;11110;52.386;16.940;2022-07-22T06:03:02;35.00;48.60
21891;DHT22;11110;52.386;16.940;2022-07-22T06:05:32;35.00;49.10
21891;DHT22;11110;52.386;16.940;2022-07-22T06:08:07;35.00;48.30
21891;DHT22;11110;52.386;16.940;2022-07-22T06:10:41;35.00;48.10
21891;DHT22;11110;52.386;16.940;2022-07-22T06:13:10;35.00;48.10
21891;DHT22;11110;52.386;16.940;2022-07-22T06:15:40;35.00;48.00
21891;DHT22;11110;52.386;16.940;2022-07-22T06:18:09;35.10;48.20
21891;DHT22;11110;52.386;16.940;2022-07-22T06:20:37;35.10;48.10
21891;DHT22;11110;52.386;16.940;2022-07-22T06:23:06;35.10;47.80
21891;DHT22;11110;52.386;16.940;2022-07-22T06:25:35;35.10;47.80
21891;DHT22;11110;52.386;16.940;2022-07-22T06:28:18;35.10;47.70
21891;DHT22;11110;52.386;16.940;2022-07-22T06:30:46;35.10;47.80
21891;DHT22;11110;52.386;16.940;2022-07-22T06:33:16;35.20;47.80
21891;DHT22;11110;52.386;16.940;2022-07-22T06:35:45;35.20;48.30
21891;DHT22;11110;52.386;16.940;2022-07-22T06:38:13;35.20;47.60
21891;DHT22;11110;52.386;16.940;2022-07-22T06:41:17;35.20;47.10
21891;DHT22;11110;52.386;16.940;2022-07-22T06:44:12;35.30;47.10
21891;DHT22;11110;52.386;16.940;2022-07-22T06:46:59;35.30;46.80
21891;DHT22;11110;52.386;16.940;2022-07-22T06:49:31;35.40;47.10
21891;DHT22;11110;52.386;16.940;2022-07-22T06:52:01;35.40;47.00
21891;DHT22;11110;52.386;16.940;2022-07-22T06:54:29;35.50;46.60
21891;DHT22;11110;52.386;16.940;2022-07-22T06:57:01;35.50;46.10
21891;DHT22;11110;52.386;16.940;2022-07-22T06:59:34;35.40;46.40
21891;DHT22;11110;52.386;16.940;2022-07-22T07:02:07;35.40;46.40
21891;DHT22;11110;52.386;16.940;2022-07-22T07:04:37;35.40;46.60
21891;DHT22;11110;52.386;16.940;2022-07-22T07:07:07;35.50;46.40
21891;DHT22;11110;52.386;16.940;2022-07-22T07:09:54;35.50;46.20
21891;DHT22;11110;52.386;16.940;2022-07-22T07:12:34;35.50;46.40
21891;DHT22;11110;52.386;16.940;2022-07-22T07:15:09;35.60;47.30
21891;DHT22;11110;52.386;16.940;2022-07-22T07:17:54;35.60;46.40
21891;DHT22;11110;52.386;16.940;2022-07-22T07:20:24;35.70;46.40
21891;DHT22;11110;52.386;16.940;2022-07-22T07:22:53;35.60;46.20
21891;DHT22;11110;52.386;16.940;2022-07-22T07:25:23;35.60;46.30
21891;DHT22;11110;52.386;16.940;2022-07-22T07:27:54;35.60;46.40
21891;DHT22;11110;52.386;16.940;2022-07-22T07:30:42;35.70;46.50
21891;DHT22;11110;52.386;16.940;2022-07-22T07:33:11;35.70;46.30
21891;DHT22;11110;52.386;16.940;2022-07-22T07:35:40;35.70;46.20
21891;DHT22;11110;52.386;16.940;2022-07-22T07:38:08;35.70;46.30
21891;DHT22;11110;52.386;16.940;2022-07-22T07:40:40;35.80;46.30
21891;DHT22;11110;52.386;16.940;2022-07-22T07:43:09;35.80;46.00
21891;DHT22;11110;52.386;16.940;2022-07-22T07:45:38;35.80;45.70
21891;DHT22;11110;52.386;16.940;2022-07-22T07:48:08;35.70;45.90
21891;DHT22;11110;52.386;16.940;2022-07-22T07:50:37;35.80;45.80
21891;DHT22;11110;52.386;16.940;2022-07-22T07:53:06;35.80;46.10
21891;DHT22;11110;52.386;16.940;2022-07-22T07:55:35;35.80;46.10
21891;DHT22;11110;52.386;16.940;2022-07-22T07:58:05;35.80;46.10
21891;DHT22;11110;52.386;16.940;2022-07-22T08:00:35;35.90;46.20
21891;DHT22;11110;52.386;16.940;2022-07-22T08:03:04;35.80;46.20
21891;DHT22;11110;52.386;16.940;2022-07-22T08:05:37;35.90;46.20
21891;DHT22;11110;52.386;16.940;2022-07-22T08:08:16;35.90;46.00
21891;DHT22;11110;52.386;16.940;2022-07-22T08:10:45;36.00;45.80
21891;DHT22;11110;52.386;16.940;2022-07-22T08:13:37;36.00;45.90
21891;DHT22;11110;52.386;16.940;2022-07-22T08:16:06;36.00;45.20
21891;DHT22;11110;52.386;16.940;2022-07-22T08:18:36;36.00;45.00
21891;DHT22;11110;52.386;16.940;2022-07-22T08:21:07;36.00;45.00
21891;DHT22;11110;52.386;16.940;2022-07-22T08:23:47;36.10;44.90
21891;DHT22;11110;52.386;16.940;2022-07-22T08:26:17;36.00;45.30
21891;DHT22;11110;52.386;16.940;2022-07-22T08:28:46;36.10;45.60
21891;DHT22;11110;52.386;16.940;2022-07-22T08:31:15;36.10;45.60
21891;DHT22;11110;52.386;16.940;2022-07-22T08:33:44;36.10;45.50
21891;DHT22;11110;52.386;16.940;2022-07-22T08:36:14;36.30;44.90
21891;DHT22;11110;52.386;16.940;2022-07-22T08:38:42;36.20;44.40
21891;DHT22;11110;52.386;16.940;2022-07-22T08:41:13;36.20;44.60
21891;DHT22;11110;52.386;16.940;2022-07-22T08:43:42;36.20;44.10
21891;DHT22;11110;52.386;16.940;2022-07-22T08:46:11;36.20;44.40
21891;DHT22;11110;52.386;16.940;2022-07-22T08:49:03;36.20;44.40
21891;DHT22;11110;52.386;16.940;2022-07-22T08:51:56;36.30;44.10
21891;DHT22;11110;52.386;16.940;2022-07-22T08:54:27;36.40;44.30
21891;DHT22;11110;52.386;16.940;2022-07-22T08:56:58;36.40;44.10
21891;DHT22;11110;52.386;16.940;2022-07-22T08:59:26;36.40;44.10
21891;DHT22;11110;52.386;16.940;2022-07-22T09:02:02;36.30;43.80
21891;DHT22;11110;52.386;16.940;2022-07-22T09:04:50;36.40;43.80
21891;DHT22;11110;52.386;16.940;2022-07-22T09:07:26;36.50;43.60
21891;DHT22;11110;52.386;16.940;2022-07-22T09:09:58;36.60;43.70
21891;DHT22;11110;52.386;16.940;2022-07-22T09:13:04;36.60;43.50
21891;DHT22;11110;52.386;16.940;2022-07-22T09:15:50;36.60;43.40
21891;DHT22;11110;52.386;16.940;2022-07-22T09:18:48;36.80;43.40
21891;DHT22;11110;52.386;16.940;2022-07-22T09:21:29;36.90;43.10
21891;DHT22;11110;52.386;16.940;2022-07-22T09:24:09;36.90;43.00
21891;DHT22;11110;52.386;16.940;2022-07-22T09:26:54;37.00;42.80
21891;DHT22;11110;52.386;16.940;2022-07-22T09:29:30;37.00;42.90
21891;DHT22;11110;52.386;16.940;2022-07-22T09:32:11;37.00;43.00
21891;DHT22;11110;52.386;16.940;2022-07-22T09:35:02;37.10;42.60
21891;DHT22;11110;52.386;16.940;2022-07-22T09:37:53;37.20;41.80
21891;DHT22;11110;52.386;16.940;2022-07-22T09:40:25;37.20;42.00
21891;DHT22;11110;52.386;16.940;2022-07-22T09:42:57;37.30;41.70
21891;DHT22;11110;52.386;16.940;2022-07-22T09:45:27;37.30;41.40
21891;DHT22;11110;52.386;16.940;2022-07-22T09:47:58;37.30;41.40
21891;DHT22;11110;52.386;16.940;2022-07-22T09:50:46;37.40;41.10
21891;DHT22;11110;52.386;16.940;2022-07-22T09:53:20;37.40;41.20
21891;DHT22;11110;52.386;16.940;2022-07-22T09:56:03;37.40;41.60
21891;DHT22;11110;52.386;16.940;2022-07-22T09:58:33;37.40;41.20
21891;DHT22;11110;52.386;16.940;2022-07-22T10:01:07;37.40;40.80
21891;DHT22;11110;52.386;16.940;2022-07-22T10:03:38;37.50;40.80
21891;DHT22;11110;52.386;16.940;2022-07-22T10:06:09;37.60;40.50
21891;DHT22;11110;52.386;16.940;2022-07-22T10:08:39;37.60;39.90
21891;DHT22;11110;52.386;16.940;2022-07-22T10:11:09;37.70;39.90
21891;DHT22;11110;52.386;16.940;2022-07-22T10:13:42;37.70;40.60
21891;DHT22;11110;52.386;16.940;2022-07-22T10:16:12;37.80;39.80
21891;DHT22;11110;52.386;16.940;2022-07-22T10:18:44;37.80;39.70
21891;DHT22;11110;52.386;16.940;2022-07-22T10:21:14;38.00;39.00
21891;DHT22;11110;52.386;16.940;2022-07-22T10:24:09;37.90;39.00
21891;DHT22;11110;52.386;16.940;2022-07-22T10:26:50;37.90;39.20
21891;DHT22;11110;52.386;16.940;2022-07-22T10:29:29;37.90;39.50
21891;DHT22;11110;52.386;16.940;2022-07-22T10:32:23;37.90;38.90
21891;DHT22;11110;52.386;16.940;2022-07-22T10:35:20;38.00;38.20
21891;DHT22;11110;52.386;16.940;2022-07-22T10:37:53;37.90;38.70
21891;DHT22;11110;52.386;16.940;2022-07-22T10:40:23;37.90;39.00
21891;DHT22;11110;52.386;16.940;2022-07-22T10:43:09;38.00;39.10
21891;DHT22;11110;52.386;16.940;2022-07-22T10:45:40;38.20;38.70
21891;DHT22;11110;52.386;16.940;2022-07-22T10:48:12;38.10;38.30
21891;DHT22;11110;52.386;16.940;2022-07-22T10:50:47;38.00;38.10
21891;DHT22;11110;52.386;16.940;2022-07-22T10:53:19;38.00;37.90
21891;DHT22;11110;52.386;16.940;2022-07-22T10:56:12;38.10;37.90
21891;DHT22;11110;52.386;16.940;2022-07-22T10:58:53;38.00;38.00
21891;DHT22;11110;52.386;16.940;2022-07-22T11:01:25;38.20;37.70
21891;DHT22;11110;52.386;16.940;2022-07-22T11:03:56;38.20;37.50
21891;DHT22;11110;52.386;16.940;2022-07-22T11:06:41;38.20;37.40
21891;DHT22;11110;52.386;16.940;2022-07-22T11:09:12;38.20;37.40
21891;DHT22;11110;52.386;16.940;2022-07-22T11:11:43;38.20;38.50
21891;DHT22;11110;52.386;16.940;2022-07-22T11:14:22;38.20;37.40
21891;DHT22;11110;52.386;16.940;2022-07-22T11:16:55;38.30;37.60
21891;DHT22;11110;52.386;16.940;2022-07-22T11:19:25;38.20;37.10
21891;DHT22;11110;52.386;16.940;2022-07-22T11:21:55;38.30;36.50
21891;DHT22;11110;52.386;16.940;2022-07-22T11:24:25;38.30;36.80
21891;DHT22;11110;52.386;16.940;2022-07-22T11:26:55;38.40;36.20
21891;DHT22;11110;52.386;16.940;2022-07-22T11:29:34;38.50;36.50
21891;DHT22;11110;52.386;16.940;2022-07-22T11:32:06;38.50;36.50
21891;DHT22;11110;52.386;16.940;2022-07-22T11:34:36;38.50;36.70
21891;DHT22;11110;52.386;16.940;2022-07-22T11:37:05;38.60;36.90
21891;DHT22;11110;52.386;16.940;2022-07-22T11:39:34;38.60;36.60
21891;DHT22;11110;52.386;16.940;2022-07-22T11:42:03;38.70;36.40
21891;DHT22;11110;52.386;16.940;2022-07-22T11:44:35;38.70;36.10
21891;DHT22;11110;52.386;16.940;2022-07-22T11:47:05;38.60;36.20
21891;DHT22;11110;52.386;16.940;2022-07-22T11:49:37;38.60;36.20
21891;DHT22;11110;52.386;16.940;2022-07-22T11:52:08;38.70;36.70
21891;DHT22;11110;52.386;16.940;2022-07-22T11:54:40;38.60;36.10
21891;DHT22;11110;52.386;16.940;2022-07-22T11:57:10;38.70;36.00
21891;DHT22;11110;52.386;16.940;2022-07-22T11:59:41;38.70;36.00
21891;DHT22;11110;52.386;16.940;2022-07-22T12:02:10;38.70;35.80
21891;DHT22;11110;52.386;16.940;2022-07-22T12:04:41;38.70;36.00
21891;DHT22;11110;52.386;16.940;2022-07-22T12:07:12;38.70;35.90
21891;DHT22;11110;52.386;16.940;2022-07-22T12:09:41;38.80;35.40
21891;DHT22;11110;52.386;16.940;2022-07-22T12:12:10;38.80;36.10
21891;DHT22;11110;52.386;16.940;2022-07-22T12:14:46;38.90;35.60
21891;DHT22;11110;52.386;16.940;2022-07-22T12:17:16;39.00;35.30
21891;DHT22;11110;52.386;16.940;2022-07-22T12:19:45;39.00;35.20
21891;DHT22;11110;52.386;16.940;2022-07-22T12:22:20;39.00;36.10
21891;DHT22;11110;52.386;16.940;2022-07-22T12:24:58;39.20;34.60
21891;DHT22;11110;52.386;16.940;2022-07-22T12:27:26;39.30;34.40
21891;DHT22;11110;52.386;16.940;2022-07-22T12:29:56;39.20;33.90
21891;DHT22;11110;52.386;16.940;2022-07-22T12:32:26;39.20;34.40
21891;DHT22;11110;52.386;16.940;2022-07-22T12:34:56;39.30;34.50
21891;DHT22;11110;52.386;16.940;2022-07-22T12:37:26;39.20;34.00
21891;DHT22;11110;52.386;16.940;2022-07-22T12:39:57;39.40;34.20
21891;DHT22;11110;52.386;16.940;2022-07-22T12:42:27;39.30;34.40
21891;DHT22;11110;52.386;16.940;2022-07-22T12:45:03;39.30;34.40
21891;DHT22;11110;52.386;16.940;2022-07-22T12:47:49;39.40;35.50
21891;DHT22;11110;52.386;16.940;2022-07-22T12:50:23;39.40;34.90
21891;DHT22;11110;52.386;16.940;2022-07-22T12:52:53;39.40;34.90
21891;DHT22;11110;52.386;16.940;2022-07-22T12:55:43;39.60;34.10
21891;DHT22;11110;52.386;16.940;2022-07-22T12:58:13;39.50;33.60
21891;DHT22;11110;52.386;16.940;2022-07-22T13:00:46;39.50;33.90
21891;DHT22;11110;52.386;16.940;2022-07-22T13:03:15;39.40;33.80
21891;DHT22;11110;52.386;16.940;2022-07-22T13:05:46;39.40;33.70
21891;DHT22;11110;52.386;16.940;2022-07-22T13:08:16;39.40;34.00
21891;DHT22;11110;52.386;16.940;2022-07-22T13:10:46;39.30;33.50
21891;DHT22;11110;52.386;16.940;2022-07-22T13:13:14;39.40;33.60
21891;DHT22;11110;52.386;16.940;2022-07-22T13:15:45;39.30;33.60
21891;DHT22;11110;52.386;16.940;2022-07-22T13:18:14;39.40;34.10
21891;DHT22;11110;52.386;16.940;2022-07-22T13:20:42;39.40;33.50
21891;DHT22;11110;52.386;16.940;2022-07-22T13:23:11;39.40;33.30
21891;DHT22;11110;52.386;16.940;2022-07-22T13:25:39;39.40;33.40
21891;DHT22;11110;52.386;16.940;2022-07-22T13:28:08;39.40;33.40
21891;DHT22;11110;52.386;16.940;2022-07-22T13:30:37;39.40;33.80
21891;DHT22;11110;52.386;16.940;2022-07-22T13:33:07;39.40;33.70
21891;DHT22;11110;52.386;16.940;2022-07-22T13:35:35;39.40;33.80
21891;DHT22;11110;52.386;16.940;2022-07-22T13:38:04;39.40;33.70
21891;DHT22;11110;52.386;16.940;2022-07-22T13:40:38;39.40;33.70
21891;DHT22;11110;52.386;16.940;2022-07-22T13:43:06;39.50;33.20
21891;DHT22;11110;52.386;16.940;2022-07-22T13:45:41;39.50;34.10
21891;DHT22;11110;52.386;16.940;2022-07-22T13:48:11;39.40;33.50
21891;DHT22;11110;52.386;16.940;2022-07-22T13:50:39;39.40;33.40
21891;DHT22;11110;52.386;16.940;2022-07-22T13:53:08;39.50;33.40
21891;DHT22;11110;52.386;16.940;2022-07-22T13:55:37;39.60;33.30
21891;DHT22;11110;52.386;16.940;2022-07-22T13:58:06;39.50;33.60
21891;DHT22;11110;52.386;16.940;2022-07-22T14:00:35;39.60;33.30
21891;DHT22;11110;52.386;16.940;2022-07-22T14:03:05;39.70;33.50
21891;DHT22;11110;52.386;16.940;2022-07-22T14:05:35;39.70;33.10
21891;DHT22;11110;52.386;16.940;2022-07-22T14:08:04;39.80;33.40
21891;DHT22;11110;52.386;16.940;2022-07-22T14:10:32;39.80;32.80
21891;DHT22;11110;52.386;16.940;2022-07-22T14:13:01;39.80;33.40
21891;DHT22;11110;52.386;16.940;2022-07-22T14:15:30;39.90;33.60
21891;DHT22;11110;52.386;16.940;2022-07-22T14:17:58;40.00;32.80
21891;DHT22;11110;52.386;16.940;2022-07-22T14:20:27;40.00;32.60
21891;DHT22;11110;52.386;16.940;2022-07-22T14:22:56;40.00;32.60
21891;DHT22;11110;52.386;16.940;2022-07-22T14:25:25;40.20;32.40
21891;DHT22;11110;52.386;16.940;2022-07-22T14:27:53;40.20;32.60
21891;DHT22;11110;52.386;16.940;2022-07-22T14:30:42;40.20;32.80
21891;DHT22;11110;52.386;16.940;2022-07-22T14:33:10;40.20;33.20
21891;DHT22;11110;52.386;16.940;2022-07-22T14:35:39;40.30;32.60
21891;DHT22;11110;52.386;16.940;2022-07-22T14:38:09;40.50;32.00
21891;DHT22;11110;52.386;16.940;2022-07-22T14:40:37;40.50;32.10
21891;DHT22;11110;52.386;16.940;2022-07-22T14:43:06;40.40;32.70
21891;DHT22;11110;52.386;16.940;2022-07-22T14:45:54;40.50;32.50
21891;DHT22;11110;52.386;16.940;2022-07-22T14:48:23;40.60;32.20
21891;DHT22;11110;52.386;16.940;2022-07-22T14:50:51;40.70;31.70
21891;DHT22;11110;52.386;16.940;2022-07-22T14:53:21;40.80;31.30
21891;DHT22;11110;52.386;16.940;2022-07-22T14:55:49;40.80;31.90
21891;DHT22;11110;52.386;16.940;2022-07-22T14:58:18;40.80;31.60
21891;DHT22;11110;52.386;16.940;2022-07-22T15:00:47;40.80;31.70
21891;DHT22;11110;52.386;16.940;2022-07-22T15:03:15;40.80;31.50
21891;DHT22;11110;52.386;16.940;2022-07-22T15:05:44;40.70;31.30
21891;DHT22;11110;52.386;16.940;2022-07-22T15:08:12;40.80;31.70
21891;DHT22;11110;52.386;16.940;2022-07-22T15:10:42;40.90;31.00
21891;DHT22;11110;52.386;16.940;2022-07-22T15:13:10;40.90;31.00
21891;DHT22;11110;52.386;16.940;2022-07-22T15:15:39;40.90;31.50
21891;DHT22;11110;52.386;16.940;2022-07-22T15:18:08;40.80;31.20
21891;DHT22;11110;52.386;16.940;2022-07-22T15:20:36;40.80;31.10
21891;DHT22;11110;52.386;16.940;2022-07-22T15:23:05;40.90;31.30
21891;DHT22;11110;52.386;16.940;2022-07-22T15:25:35;41.00;31.20
21891;DHT22;11110;52.386;16.940;2022-07-22T15:28:05;41.20;30.80
21891;DHT22;11110;52.386;16.940;2022-07-22T15:30:55;41.30;30.40
21891;DHT22;11110;52.386;16.940;2022-07-22T15:33:24;41.30;30.40
21891;DHT22;11110;52.386;16.940;2022-07-22T15:36:03;41.40;30.10
21891;DHT22;11110;52.386;16.940;2022-07-22T15:38:33;41.50;30.80
21891;DHT22;11110;52.386;16.940;2022-07-22T15:41:01;41.60;30.40
21891;DHT22;11110;52.386;16.940;2022-07-22T15:43:32;41.90;29.70